Overview Statistics Trail Chart Weather Telemetry Raw packets
 

This is the latest recevied weather packets stored in our database for station/object IW1CBG-3. If no packets are shown the sender has not sent any weather packets the latest 10 day(s).

<< 15 16 17 18 19 20 21 >>
Time Temp. Humidity Pressure Rain* Wind** Luminosity Snow
1788441378 27.78° C 67% 1027.4 hPa 0 mm - - -
1788440780 27.78° C 64% 1027.4 hPa 0 mm - - -
1788440176 27.22° C 67% 1027.7 hPa 0 mm - - -
1788439577 26.67° C 68% 1027.8 hPa 0 mm - - -
1788438976 27.22° C 67% 1027.4 hPa 0 mm - - -
1788438376 27.78° C 63% 1027.3 hPa 0 mm - - -
1788437776 27.78° C 64% 1027.4 hPa 0 mm - - -
1788437177 28.89° C 52% 1027.3 hPa 0 mm - - -
1788436578 28.33° C 52% 1027.3 hPa 0 mm - - -
1788435976 27.78° C 53% 1027.4 hPa 0 mm - - -
1788435377 27.78° C 54% 1027.7 hPa 0 mm - - -
1788434776 27.22° C 56% 1028.2 hPa 0 mm - - -
1788434176 27.78° C 55% 1028.1 hPa 0 mm - - -
1788433578 27.78° C 55% 1028 hPa 0 mm - - -
1788432977 27.22° C 54% 1028.3 hPa 0 mm - - -
1788432378 27.22° C 55% 1028.5 hPa 0 mm - - -
1788431777 27.22° C 57% 1028.7 hPa 0 mm - - -
1788431177 26.67° C 58% 1028.9 hPa 0 mm - - -
1788430577 26.67° C 61% 1028.9 hPa 0 mm - - -
1788429977 26.11° C 62% 1029.3 hPa 0 mm - - -
1788429376 26.11° C 62% 1029.2 hPa 0 mm - - -
1788428776 26.11° C 62% 1029.2 hPa 0 mm - - -
1788428176 26.67° C 60% 1029.1 hPa 0 mm - - -
1788426977 25° C 65% 1030 hPa 0 mm - - -
1788426381 24.44° C 64% 1030.1 hPa 0 mm - - -

* Rain latest hour (hover to see other rain measurements)
** Current wind speed in m/s (hover to see current wind gust speed)